<?xml version="1.0" encoding="UTF-8"?>
<gpx version="1.1" creator="2bulu-scraper" xmlns="http://www.topografix.com/GPX/1/1">
  <metadata><name>五德大锅圈天坑群</name><desc>source: 2bulu.com trackId=86893679; exported 2026-09-01T18:36:20.262Z</desc>
    <bounds minlat="27.5839656" minlon="104.7678058" maxlat="27.6001374" maxlon="104.7727602"/>
    <link href="https://www.2bulu.com/track/t-cYqH%252B%252Bbei7bp%252FR2KBg5Tzw%253D%253D.htm"><text>2bulu 源页面</text></link>
  </metadata>
  <wpt lat="27.5955551" lon="104.7720033"><ele>1376</ele><name>
        </name></wpt>
  <wpt lat="27.5961494" lon="104.7715225"><ele>1420</ele><name>
        </name></wpt>
  <wpt lat="27.5963033" lon="104.7716472"><ele>1381</ele><name>
        </name></wpt>
  <wpt lat="27.5986097" lon="104.7708806"><ele>1292</ele><name>
        </name></wpt>
  <wpt lat="27.6000407" lon="104.7690995"><ele>1270</ele><name>
        </name></wpt>
  <wpt lat="27.5999975" lon="104.7681502"><ele>1260</ele><name>
        </name></wpt>
  <wpt lat="27.5988794" lon="104.7678058"><ele>1259</ele><name>
        </name></wpt>
  <wpt lat="27.5986996" lon="104.7679749"><ele>1364</ele><name>
        </name></wpt>
  <wpt lat="27.5986671" lon="104.7679138"><ele>1376</ele><name>
        </name></wpt>
  <wpt lat="27.5982473" lon="104.7685261"><ele>1245</ele><name>
        </name></wpt>
  <wpt lat="27.5960606" lon="104.770492"><ele>1249</ele><name>
        </name></wpt>
  <wpt lat="27.5958986" lon="104.7706361"><ele>1252</ele><name>
        </name></wpt>
  <wpt lat="27.5959943" lon="104.7704672"><ele>1250</ele><name>
        </name></wpt>
  <wpt lat="27.5959589" lon="104.7704775"><ele>1249</ele><name>
        </name></wpt>
  <wpt lat="27.5963058" lon="104.7710535"><ele>1256</ele><name>
        </name></wpt>
  <wpt lat="27.5972145" lon="104.7712404"><ele>1278</ele><name>
        </name></wpt>
  <wpt lat="27.589618" lon="104.768456"><ele>1420</ele><name>
        </name></wpt>
  <wpt lat="27.5895078" lon="104.7687849"><ele>1482</ele><name>
        </name></wpt>
  <wpt lat="27.5895078" lon="104.7687849"><ele>1471</ele><name>
        </name></wpt>
  <wpt lat="27.5846271" lon="104.7687225"><ele>1468</ele><name>
        </name></wpt>
  <wpt lat="27.5851894" lon="104.768908"><ele>1469</ele><name>
        </name></wpt>
  <wpt lat="27.5856904" lon="104.7688972"><ele>1481</ele><name>
        </name></wpt>
  <wpt lat="27.5857936" lon="104.7691781"><ele>1489</ele><name>
        </name></wpt>
  <wpt lat="27.5855018" lon="104.7691881"><ele>1492</ele><name>
        </name></wpt>
  <wpt lat="27.585399" lon="104.7689794"><ele>1487</ele><name>
        </name></wpt>
  <trk><name>五德大锅圈天坑群</name>
      <trkseg>
        <trkpt lat="27.5958704" lon="104.7716169"><ele>1385.26</ele><time>2026-07-07T22:13:46.000Z</time></trkpt>
        <trkpt lat="27.5959503" lon="104.7716855"><ele>1385.26</ele><time>2026-07-07T22:13:48.000Z</time></trkpt>
        <trkpt lat="27.5958797" lon="104.7716206"><ele>1384.63</ele><time>2026-07-07T22:13:51.000Z</time></trkpt>
        <trkpt lat="27.5958005" lon="104.7715206"><ele>1386.26</ele><time>2026-07-07T22:14:03.000Z</time></trkpt>
        <trkpt lat="27.5958444" lon="104.7714647"><ele>1387.22</ele><time>2026-07-07T22:14:13.000Z</time></trkpt>
        <trkpt lat="27.5959388" lon="104.7714357"><ele>1386.05</ele><time>2026-07-07T22:14:21.000Z</time></trkpt>
        <trkpt lat="27.5960415" lon="104.7714337"><ele>1384.16</ele><time>2026-07-07T22:14:31.000Z</time></trkpt>
        <trkpt lat="27.5961334" lon="104.7714821"><ele>1382.12</ele><time>2026-07-07T22:14:53.000Z</time></trkpt>
        <trkpt lat="27.596032" lon="104.7714719"><ele>1378.73</ele><time>2026-07-07T22:16:21.000Z</time></trkpt>
        <trkpt lat="27.5959329" lon="104.7714545"><ele>1378.02</ele><time>2026-07-07T22:16:29.000Z</time></trkpt>
        <trkpt lat="27.595835" lon="104.7714846"><ele>1377.64</ele><time>2026-07-07T22:16:41.000Z</time></trkpt>
        <trkpt lat="27.5957803" lon="104.7715631"><ele>1377.6</ele><time>2026-07-07T22:16:51.000Z</time></trkpt>
        <trkpt lat="27.5957433" lon="104.7716671"><ele>1376.97</ele><time>2026-07-07T22:17:01.000Z</time></trkpt>
        <trkpt lat="27.5957289" lon="104.7717818"><ele>1376.18</ele><time>2026-07-07T22:17:11.000Z</time></trkpt>
        <trkpt lat="27.5957793" lon="104.771889"><ele>1375.48</ele><time>2026-07-07T22:17:23.000Z</time></trkpt>
        <trkpt lat="27.5957294" lon="104.7719553"><ele>1374.83</ele><time>2026-07-07T22:18:05.000Z</time></trkpt>
        <trkpt lat="27.5956461" lon="104.7719255"><ele>1374.48</ele><time>2026-07-07T22:18:15.000Z</time></trkpt>
        <trkpt lat="27.5955553" lon="104.7718717"><ele>1373.9</ele><time>2026-07-07T22:18:23.000Z</time></trkpt>
        <trkpt lat="27.5954859" lon="104.7719258"><ele>1373.09</ele><time>2026-07-07T22:18:41.000Z</time></trkpt>
        <trkpt lat="27.5954291" lon="104.7720321"><ele>1374.15</ele><time>2026-07-07T22:19:23.000Z</time></trkpt>
        <trkpt lat="27.5954975" lon="104.7720604"><ele>1375.12</ele><time>2026-07-07T22:19:43.000Z</time></trkpt>
        <trkpt lat="27.5955521" lon="104.7721408"><ele>1376.07</ele><time>2026-07-07T22:19:57.000Z</time></trkpt>
        <trkpt lat="27.5955345" lon="104.7720978"><ele>1379.73</ele><time>2026-07-07T22:20:17.000Z</time></trkpt>
        <trkpt lat="27.5955551" lon="104.7720033"><ele>1378.52</ele><time>2026-07-07T22:20:53.000Z</time></trkpt>
        <trkpt lat="27.595623" lon="104.7719209"><ele>1380.7</ele><time>2026-07-07T22:21:03.000Z</time></trkpt>
        <trkpt lat="27.5956764" lon="104.7718268"><ele>1382.06</ele><time>2026-07-07T22:21:13.000Z</time></trkpt>
        <trkpt lat="27.5957108" lon="104.7717213"><ele>1383.1</ele><time>2026-07-07T22:21:23.000Z</time></trkpt>
        <trkpt lat="27.5957394" lon="104.7716114"><ele>1383.31</ele><time>2026-07-07T22:21:31.000Z</time></trkpt>
        <trkpt lat="27.5957673" lon="104.7715074"><ele>1383.54</ele><time>2026-07-07T22:21:39.000Z</time></trkpt>
        <trkpt lat="27.5958396" lon="104.7714498"><ele>1383.18</ele><time>2026-07-07T22:21:47.000Z</time></trkpt>
        <trkpt lat="27.5959404" lon="104.7714324"><ele>1382.6</ele><time>2026-07-07T22:21:55.000Z</time></trkpt>
        <trkpt lat="27.5960375" lon="104.7714658"><ele>1381.71</ele><time>2026-07-07T22:22:03.000Z</time></trkpt>
        <trkpt lat="27.5961394" lon="104.7715012"><ele>1380.69</ele><time>2026-07-07T22:22:13.000Z</time></trkpt>
        <trkpt lat="27.5961859" lon="104.7716301"><ele>1379.85</ele><time>2026-07-07T22:23:29.000Z</time></trkpt>
        <trkpt lat="27.5962136" lon="104.7717024"><ele>1380.52</ele><time>2026-07-07T22:23:31.000Z</time></trkpt>
        <trkpt lat="27.5963033" lon="104.7716472"><ele>1380.66</ele><time>2026-07-07T22:24:33.000Z</time></trkpt>
        <trkpt lat="27.5964295" lon="104.7716671"><ele>1381.6</ele><time>2026-07-07T22:24:45.000Z</time></trkpt>
        <trkpt lat="27.596546" lon="104.7716429"><ele>1381.92</ele><time>2026-07-07T22:24:51.000Z</time></trkpt>
        <trkpt lat="27.5965249" lon="104.7715628"><ele>1381.84</ele><time>2026-07-07T22:24:57.000Z</time></trkpt>
        <trkpt lat="27.5964561" lon="104.7714811"><ele>1382.19</ele><time>2026-07-07T22:25:23.000Z</time></trkpt>
        <trkpt lat="27.5964787" lon="104.7715189"><ele>1380.84</ele><time>2026-07-07T22:25:37.000Z</time></trkpt>
        <trkpt lat="27.5965393" lon="104.7715969"><ele>1379.02</ele><time>2026-07-07T22:26:03.000Z</time></trkpt>
        <trkpt lat="27.5966173" lon="104.7715839"><ele>1376.25</ele><time>2026-07-07T22:26:25.000Z</time></trkpt>
        <trkpt lat="27.5966838" lon="104.771646"><ele>1370.21</ele><time>2026-07-07T22:26:33.000Z</time></trkpt>
        <trkpt lat="27.5967245" lon="104.7717515"><ele>1365.11</ele><time>2026-07-07T22:26:45.000Z</time></trkpt>
        <trkpt lat="27.5968025" lon="104.7718232"><ele>1359.25</ele><time>2026-07-07T22:26:57.000Z</time></trkpt>
        <trkpt lat="27.5969015" lon="104.7718722"><ele>1355.05</ele><time>2026-07-07T22:27:05.000Z</time></trkpt>
        <trkpt lat="27.5969906" lon="104.7719339"><ele>1353.32</ele><time>2026-07-07T22:27:17.000Z</time></trkpt>
        <trkpt lat="27.5970608" lon="104.7718868"><ele>1353.69</ele><time>2026-07-07T22:27:29.000Z</time></trkpt>
        <trkpt lat="27.5971507" lon="104.7718838"><ele>1354.5</ele><time>2026-07-07T22:27:41.000Z</time></trkpt>
        <trkpt lat="27.5972471" lon="104.7718865"><ele>1354.01</ele><time>2026-07-07T22:27:51.000Z</time></trkpt>
        <trkpt lat="27.5973347" lon="104.7718335"><ele>1353.04</ele><time>2026-07-07T22:27:59.000Z</time></trkpt>
        <trkpt lat="27.5974317" lon="104.7718124"><ele>1353.41</ele><time>2026-07-07T22:28:15.000Z</time></trkpt>
        <trkpt lat="27.5975359" lon="104.7718346"><ele>1352.44</ele><time>2026-07-07T22:28:25.000Z</time></trkpt>
        <trkpt lat="27.5976347" lon="104.7718157"><ele>1350.83</ele><time>2026-07-07T22:28:55.000Z</time></trkpt>
        <trkpt lat="27.5977103" lon="104.7717372"><ele>1348.38</ele><time>2026-07-07T22:30:35.000Z</time></trkpt>
        <trkpt lat="27.5977911" lon="104.7716876"><ele>1341</ele><time>2026-07-07T22:30:57.000Z</time></trkpt>
        <trkpt lat="27.5978817" lon="104.7716992"><ele>1335.41</ele><time>2026-07-07T22:31:11.000Z</time></trkpt>
        <trkpt lat="27.5979179" lon="104.7716211"><ele>1331.07</ele><time>2026-07-07T22:31:49.000Z</time></trkpt>
        <trkpt lat="27.5979809" lon="104.7715523"><ele>1323.74</ele><time>2026-07-07T22:32:01.000Z</time></trkpt>
        <trkpt lat="27.5980638" lon="104.771502"><ele>1318</ele><time>2026-07-07T22:32:19.000Z</time></trkpt>
        <trkpt lat="27.5981591" lon="104.7714677"><ele>1312.41</ele><time>2026-07-07T22:32:33.000Z</time></trkpt>
        <trkpt lat="27.5982093" lon="104.7713767"><ele>1307.91</ele><time>2026-07-07T22:32:51.000Z</time></trkpt>
        <trkpt lat="27.5982715" lon="104.7712884"><ele>1303.57</ele><time>2026-07-07T22:33:07.000Z</time></trkpt>
        <trkpt lat="27.598346" lon="104.7712116"><ele>1299.19</ele><time>2026-07-07T22:33:29.000Z</time></trkpt>
        <trkpt lat="27.5984183" lon="104.7711352"><ele>1294.74</ele><time>2026-07-07T22:33:41.000Z</time></trkpt>
        <trkpt lat="27.5984626" lon="104.7710414"><ele>1293.45</ele><time>2026-07-07T22:33:57.000Z</time></trkpt>
        <trkpt lat="27.5985253" lon="104.7709602"><ele>1292.5</ele><time>2026-07-07T22:34:07.000Z</time></trkpt>
        <trkpt lat="27.5986097" lon="104.7708806"><ele>1292.6</ele><time>2026-07-07T22:34:47.000Z</time></trkpt>
        <trkpt lat="27.5986892" lon="104.7707919"><ele>1292.02</ele><time>2026-07-07T22:34:57.000Z</time></trkpt>
        <trkpt lat="27.5987569" lon="104.770712"><ele>1292.05</ele><time>2026-07-07T22:35:05.000Z</time></trkpt>
        <trkpt lat="27.5988198" lon="104.7706225"><ele>1292.33</ele><time>2026-07-07T22:35:15.000Z</time></trkpt>
        <trkpt lat="27.598876" lon="104.7705627"><ele>1292.44</ele><time>2026-07-07T22:35:21.000Z</time></trkpt>
        <trkpt lat="27.5989511" lon="104.7704929"><ele>1292.22</ele><time>2026-07-07T22:35:31.000Z</time></trkpt>
        <trkpt lat="27.5990237" lon="104.7704049"><ele>1292.3</ele><time>2026-07-07T22:35:41.000Z</time></trkpt>
        <trkpt lat="27.5990975" lon="104.7703308"><ele>1292.49</ele><time>2026-07-07T22:35:53.000Z</time></trkpt>
        <trkpt lat="27.5991825" lon="104.7702649"><ele>1292.76</ele><time>2026-07-07T22:36:03.000Z</time></trkpt>
        <trkpt lat="27.5992538" lon="104.7701856"><ele>1292.27</ele><time>2026-07-07T22:36:15.000Z</time></trkpt>
        <trkpt lat="27.599317" lon="104.7701094"><ele>1291.54</ele><time>2026-07-07T22:36:23.000Z</time></trkpt>
        <trkpt lat="27.599368" lon="104.7700179"><ele>1290.49</ele><time>2026-07-07T22:36:33.000Z</time></trkpt>
        <trkpt lat="27.5994322" lon="104.7699389"><ele>1288.91</ele><time>2026-07-07T22:36:41.000Z</time></trkpt>
        <trkpt lat="27.599516" lon="104.7698753"><ele>1287.44</ele><time>2026-07-07T22:36:49.000Z</time></trkpt>
        <trkpt lat="27.5995916" lon="104.7697937"><ele>1285.96</ele><time>2026-07-07T22:36:59.000Z</time></trkpt>
        <trkpt lat="27.5996528" lon="104.7697077"><ele>1284.34</ele><time>2026-07-07T22:37:07.000Z</time></trkpt>
        <trkpt lat="27.5997244" lon="104.7696278"><ele>1282.91</ele><time>2026-07-07T22:37:15.000Z</time></trkpt>
        <trkpt lat="27.5998023" lon="104.7695508"><ele>1281.88</ele><time>2026-07-07T22:37:25.000Z</time></trkpt>
        <trkpt lat="27.5998618" lon="104.7694661"><ele>1280.2</ele><time>2026-07-07T22:37:33.000Z</time></trkpt>
        <trkpt lat="27.5999189" lon="104.7693735"><ele>1278.2</ele><time>2026-07-07T22:37:47.000Z</time></trkpt>
        <trkpt lat="27.5999823" lon="104.7692837"><ele>1276.69</ele><time>2026-07-07T22:37:59.000Z</time></trkpt>
        <trkpt lat="27.6000409" lon="104.7692011"><ele>1274.05</ele><time>2026-07-07T22:38:09.000Z</time></trkpt>
        <trkpt lat="27.6000407" lon="104.7690995"><ele>1272.41</ele><time>2026-07-07T22:38:45.000Z</time></trkpt>
        <trkpt lat="27.6000771" lon="104.7690122"><ele>1271.41</ele><time>2026-07-07T22:38:53.000Z</time></trkpt>
        <trkpt lat="27.6000809" lon="104.7688898"><ele>1270.42</ele><time>2026-07-07T22:39:05.000Z</time></trkpt>
        <trkpt lat="27.6001265" lon="104.7687986"><ele>1269.21</ele><time>2026-07-07T22:39:17.000Z</time></trkpt>
        <trkpt lat="27.6001374" lon="104.768692"><ele>1267.58</ele><time>2026-07-07T22:39:25.000Z</time></trkpt>
        <trkpt lat="27.6001118" lon="104.7685912"><ele>1266.52</ele><time>2026-07-07T22:39:33.000Z</time></trkpt>
        <trkpt lat="27.60009" lon="104.7684808"><ele>1265.7</ele><time>2026-07-07T22:39:43.000Z</time></trkpt>
        <trkpt lat="27.6000446" lon="104.768384"><ele>1265.05</ele><time>2026-07-07T22:39:51.000Z</time></trkpt>
        <trkpt lat="27.6000085" lon="104.7682863"><ele>1264.65</ele><time>2026-07-07T22:40:03.000Z</time></trkpt>
        <trkpt lat="27.600054" lon="104.7683083"><ele>1264.44</ele><time>2026-07-07T22:40:49.000Z</time></trkpt>
        <trkpt lat="27.600028" lon="104.768251"><ele>1265.22</ele><time>2026-07-07T22:41:37.000Z</time></trkpt>
        <trkpt lat="27.5999975" lon="104.7681502"><ele>1263.14</ele><time>2026-07-07T22:42:17.000Z</time></trkpt>
        <trkpt lat="27.5999266" lon="104.7680684"><ele>1261.47</ele><time>2026-07-07T22:42:45.000Z</time></trkpt>
        <trkpt lat="27.599851" lon="104.7679958"><ele>1262.01</ele><time>2026-07-07T22:42:55.000Z</time></trkpt>
        <trkpt lat="27.5997503" lon="104.7679446"><ele>1262.5</ele><time>2026-07-07T22:43:05.000Z</time></trkpt>
        <trkpt lat="27.5996298" lon="104.7679318"><ele>1262.36</ele><time>2026-07-07T22:44:25.000Z</time></trkpt>
        <trkpt lat="27.599533" lon="104.767929"><ele>1261.07</ele><time>2026-07-07T22:44:33.000Z</time></trkpt>
        <trkpt lat="27.5994493" lon="104.7679662"><ele>1260.52</ele><time>2026-07-07T22:44:43.000Z</time></trkpt>
        <trkpt lat="27.5993392" lon="104.7679474"><ele>1259.92</ele><time>2026-07-07T22:44:59.000Z</time></trkpt>
        <trkpt lat="27.599243" lon="104.7679213"><ele>1259.69</ele><time>2026-07-07T22:45:05.000Z</time></trkpt>
        <trkpt lat="27.5991469" lon="104.7679082"><ele>1259.91</ele><time>2026-07-07T22:45:17.000Z</time></trkpt>
        <trkpt lat="27.5990475" lon="104.7679088"><ele>1259.5</ele><time>2026-07-07T22:45:29.000Z</time></trkpt>
        <trkpt lat="27.5989512" lon="104.7678757"><ele>1259.53</ele><time>2026-07-07T22:45:39.000Z</time></trkpt>
        <trkpt lat="27.5988794" lon="104.7678058"><ele>1259.59</ele><time>2026-07-07T22:45:51.000Z</time></trkpt>
        <trkpt lat="27.5988469" lon="104.7678797"><ele>1259.4</ele><time>2026-07-07T22:46:27.000Z</time></trkpt>
        <trkpt lat="27.5988042" lon="104.7678302"><ele>1259.58</ele><time>2026-07-07T22:46:47.000Z</time></trkpt>
        <trkpt lat="27.5987779" lon="104.767911"><ele>1260.03</ele><time>2026-07-07T22:46:57.000Z</time></trkpt>
        <trkpt lat="27.5987" lon="104.767946"><ele>1261.12</ele><time>2026-07-07T22:47:05.000Z</time></trkpt>
        <trkpt lat="27.5987023" lon="104.7679985"><ele>1261.88</ele><time>2026-07-07T22:47:23.000Z</time></trkpt>
        <trkpt lat="27.5986583" lon="104.7678807"><ele>1261.78</ele><time>2026-07-07T22:49:29.000Z</time></trkpt>
        <trkpt lat="27.5986602" lon="104.7678907"><ele>1259.26</ele><time>2026-07-07T22:49:35.000Z</time></trkpt>
        <trkpt lat="27.5986091" lon="104.7679986"><ele>1257.47</ele><time>2026-07-07T22:51:11.000Z</time></trkpt>
        <trkpt lat="27.5985295" lon="104.7680457"><ele>1256.77</ele><time>2026-07-07T22:51:19.000Z</time></trkpt>
        <trkpt lat="27.5984582" lon="104.768112"><ele>1256.65</ele><time>2026-07-07T22:51:29.000Z</time></trkpt>
        <trkpt lat="27.5984091" lon="104.7681497"><ele>1256.74</ele><time>2026-07-07T22:51:35.000Z</time></trkpt>
        <trkpt lat="27.5983376" lon="104.7681889"><ele>1256.66</ele><time>2026-07-07T22:51:45.000Z</time></trkpt>
        <trkpt lat="27.5983218" lon="104.7682751"><ele>1255.97</ele><time>2026-07-07T22:51:53.000Z</time></trkpt>
        <trkpt lat="27.5983087" lon="104.7684001"><ele>1255.33</ele><time>2026-07-07T22:52:51.000Z</time></trkpt>
        <trkpt lat="27.5982626" lon="104.7684988"><ele>1253.5</ele><time>2026-07-07T22:53:01.000Z</time></trkpt>
        <trkpt lat="27.5982275" lon="104.7685719"><ele>1251.31</ele><time>2026-07-07T22:53:11.000Z</time></trkpt>
        <trkpt lat="27.5982648" lon="104.7684426"><ele>1249.55</ele><time>2026-07-07T22:56:49.000Z</time></trkpt>
        <trkpt lat="27.598302" lon="104.7683422"><ele>1247.6</ele><time>2026-07-07T22:57:01.000Z</time></trkpt>
        <trkpt lat="27.598326" lon="104.7682355"><ele>1246.69</ele><time>2026-07-07T22:57:15.000Z</time></trkpt>
        <trkpt lat="27.5983337" lon="104.7683435"><ele>1245.88</ele><time>2026-07-07T23:00:07.000Z</time></trkpt>
        <trkpt lat="27.5983001" lon="104.7684382"><ele>1245.96</ele><time>2026-07-07T23:00:15.000Z</time></trkpt>
        <trkpt lat="27.5982473" lon="104.7685261"><ele>1245.3</ele><time>2026-07-07T23:01:01.000Z</time></trkpt>
        <trkpt lat="27.5982229" lon="104.7686258"><ele>1245.16</ele><time>2026-07-07T23:01:07.000Z</time></trkpt>
        <trkpt lat="27.5981849" lon="104.7687188"><ele>1245.44</ele><time>2026-07-07T23:01:15.000Z</time></trkpt>
        <trkpt lat="27.5981171" lon="104.7688013"><ele>1245.72</ele><time>2026-07-07T23:01:29.000Z</time></trkpt>
        <trkpt lat="27.5980393" lon="104.768867"><ele>1245.68</ele><time>2026-07-07T23:01:57.000Z</time></trkpt>
        <trkpt lat="27.5979494" lon="104.7688976"><ele>1244.55</ele><time>2026-07-07T23:02:11.000Z</time></trkpt>
        <trkpt lat="27.5978906" lon="104.7689742"><ele>1243.48</ele><time>2026-07-07T23:02:27.000Z</time></trkpt>
        <trkpt lat="27.5978274" lon="104.769057"><ele>1241.06</ele><time>2026-07-07T23:02:47.000Z</time></trkpt>
        <trkpt lat="27.5977477" lon="104.7691213"><ele>1238.68</ele><time>2026-07-07T23:03:07.000Z</time></trkpt>
        <trkpt lat="27.5976849" lon="104.7692115"><ele>1235.02</ele><time>2026-07-07T23:03:29.000Z</time></trkpt>
        <trkpt lat="27.5976053" lon="104.7692852"><ele>1232.34</ele><time>2026-07-07T23:04:25.000Z</time></trkpt>
        <trkpt lat="27.5975418" lon="104.7693644"><ele>1229.18</ele><time>2026-07-07T23:04:33.000Z</time></trkpt>
        <trkpt lat="27.5975098" lon="104.7694596"><ele>1227.18</ele><time>2026-07-07T23:04:47.000Z</time></trkpt>
        <trkpt lat="27.5974614" lon="104.7695627"><ele>1226.47</ele><time>2026-07-07T23:04:57.000Z</time></trkpt>
        <trkpt lat="27.5974394" lon="104.7696668"><ele>1226.33</ele><time>2026-07-07T23:05:07.000Z</time></trkpt>
        <trkpt lat="27.5973925" lon="104.7697627"><ele>1226.14</ele><time>2026-07-07T23:05:17.000Z</time></trkpt>
        <trkpt lat="27.5973349" lon="104.769873"><ele>1225.97</ele><time>2026-07-07T23:05:35.000Z</time></trkpt>
        <trkpt lat="27.5972587" lon="104.7699577"><ele>1224.56</ele><time>2026-07-07T23:05:47.000Z</time></trkpt>
        <trkpt lat="27.5971771" lon="104.7700175"><ele>1223.66</ele><time>2026-07-07T23:05:59.000Z</time></trkpt>
        <trkpt lat="27.5971023" lon="104.7700823"><ele>1223.45</ele><time>2026-07-07T23:06:07.000Z</time></trkpt>
        <trkpt lat="27.5970091" lon="104.770116"><ele>1223.45</ele><time>2026-07-07T23:06:15.000Z</time></trkpt>
        <trkpt lat="27.5969168" lon="104.770147"><ele>1223.02</ele><time>2026-07-07T23:06:27.000Z</time></trkpt>
        <trkpt lat="27.5968214" lon="104.7701396"><ele>1222.6</ele><time>2026-07-07T23:06:37.000Z</time></trkpt>
        <trkpt lat="27.5967346" lon="104.7701682"><ele>1222.43</ele><time>2026-07-07T23:07:01.000Z</time></trkpt>
        <trkpt lat="27.5967345" lon="104.7702573"><ele>1222.49</ele><time>2026-07-07T23:07:11.000Z</time></trkpt>
        <trkpt lat="27.5967537" lon="104.7703643"><ele>1222.67</ele><time>2026-07-07T23:07:31.000Z</time></trkpt>
        <trkpt lat="27.5966902" lon="104.7703841"><ele>1222.73</ele><time>2026-07-07T23:07:53.000Z</time></trkpt>
        <trkpt lat="27.596598" lon="104.7703992"><ele>1223.2</ele><time>2026-07-07T23:07:59.000Z</time></trkpt>
        <trkpt lat="27.5964917" lon="104.7704302"><ele>1223.51</ele><time>2026-07-07T23:08:07.000Z</time></trkpt>
        <trkpt lat="27.5964054" lon="104.7703782"><ele>1223.54</ele><time>2026-07-07T23:08:19.000Z</time></trkpt>
        <trkpt lat="27.5962859" lon="104.7703484"><ele>1225.06</ele><time>2026-07-07T23:08:37.000Z</time></trkpt>
        <trkpt lat="27.5961992" lon="104.7703376"><ele>1226.6</ele><time>2026-07-07T23:08:43.000Z</time></trkpt>
        <trkpt lat="27.5961108" lon="104.7703515"><ele>1227.41</ele><time>2026-07-07T23:09:01.000Z</time></trkpt>
        <trkpt lat="27.5960138" lon="104.770379"><ele>1228.43</ele><time>2026-07-07T23:09:09.000Z</time></trkpt>
        <trkpt lat="27.5959289" lon="104.7704306"><ele>1229.6</ele><time>2026-07-07T23:09:19.000Z</time></trkpt>
        <trkpt lat="27.5959805" lon="104.7704609"><ele>1234.28</ele><time>2026-07-07T23:09:41.000Z</time></trkpt>
        <trkpt lat="27.5960606" lon="104.770492"><ele>1238.32</ele><time>2026-07-07T23:09:55.000Z</time></trkpt>
        <trkpt lat="27.596075" lon="104.7705924"><ele>1243.01</ele><time>2026-07-07T23:10:55.000Z</time></trkpt>
        <trkpt lat="27.5959935" lon="104.7706106"><ele>1247.03</ele><time>2026-07-07T23:11:01.000Z</time></trkpt>
        <trkpt lat="27.5958986" lon="104.7706361"><ele>1249.45</ele><time>2026-07-07T23:11:27.000Z</time></trkpt>
        <trkpt lat="27.5958796" lon="104.7705615"><ele>1250.54</ele><time>2026-07-07T23:11:39.000Z</time></trkpt>
        <trkpt lat="27.595954" lon="104.7704996"><ele>1250.93</ele><time>2026-07-07T23:11:43.000Z</time></trkpt>
        <trkpt lat="27.5958795" lon="104.7704761"><ele>1251.13</ele><time>2026-07-07T23:12:07.000Z</time></trkpt>
        <trkpt lat="27.5959256" lon="104.770452"><ele>1250.37</ele><time>2026-07-07T23:12:21.000Z</time></trkpt>
        <trkpt lat="27.5960309" lon="104.7704466"><ele>1249.92</ele><time>2026-07-07T23:12:33.000Z</time></trkpt>
        <trkpt lat="27.5960641" lon="104.770452"><ele>1249.88</ele><time>2026-07-07T23:12:37.000Z</time></trkpt>
        <trkpt lat="27.5959943" lon="104.7704672"><ele>1250.09</ele><time>2026-07-07T23:12:55.000Z</time></trkpt>
        <trkpt lat="27.5959589" lon="104.7704775"><ele>1250.15</ele><time>2026-07-07T23:12:57.000Z</time></trkpt>
        <trkpt lat="27.5959622" lon="104.7705612"><ele>1249.92</ele><time>2026-07-07T23:13:43.000Z</time></trkpt>
        <trkpt lat="27.5960307" lon="104.7706416"><ele>1249.66</ele><time>2026-07-07T23:13:51.000Z</time></trkpt>
        <trkpt lat="27.5961181" lon="104.7707069"><ele>1249.61</ele><time>2026-07-07T23:14:13.000Z</time></trkpt>
        <trkpt lat="27.5961956" lon="104.7707917"><ele>1251.07</ele><time>2026-07-07T23:14:27.000Z</time></trkpt>
        <trkpt lat="27.5962695" lon="104.7708782"><ele>1252.46</ele><time>2026-07-07T23:14:37.000Z</time></trkpt>
        <trkpt lat="27.5963394" lon="104.7709702"><ele>1254.24</ele><time>2026-07-07T23:14:55.000Z</time></trkpt>
        <trkpt lat="27.5962842" lon="104.7709948"><ele>1256.19</ele><time>2026-07-07T23:15:09.000Z</time></trkpt>
        <trkpt lat="27.5963058" lon="104.7710535"><ele>1255.91</ele><time>2026-07-07T23:15:47.000Z</time></trkpt>
        <trkpt lat="27.5963682" lon="104.7711208"><ele>1255.15</ele><time>2026-07-07T23:15:59.000Z</time></trkpt>
        <trkpt lat="27.5964509" lon="104.7711743"><ele>1255.22</ele><time>2026-07-07T23:16:11.000Z</time></trkpt>
        <trkpt lat="27.5965463" lon="104.7711985"><ele>1256.34</ele><time>2026-07-07T23:16:21.000Z</time></trkpt>
        <trkpt lat="27.5966506" lon="104.7712102"><ele>1257.71</ele><time>2026-07-07T23:16:31.000Z</time></trkpt>
        <trkpt lat="27.5967608" lon="104.771227"><ele>1260.91</ele><time>2026-07-07T23:16:41.000Z</time></trkpt>
        <trkpt lat="27.596857" lon="104.7712623"><ele>1264.95</ele><time>2026-07-07T23:16:49.000Z</time></trkpt>
        <trkpt lat="27.5969498" lon="104.7712705"><ele>1268.52</ele><time>2026-07-07T23:17:01.000Z</time></trkpt>
        <trkpt lat="27.5970618" lon="104.7712723"><ele>1271.01</ele><time>2026-07-07T23:17:11.000Z</time></trkpt>
        <trkpt lat="27.597156" lon="104.7713062"><ele>1272.45</ele><time>2026-07-07T23:17:21.000Z</time></trkpt>
        <trkpt lat="27.5971533" lon="104.7712854"><ele>1273.59</ele><time>2026-07-07T23:17:31.000Z</time></trkpt>
        <trkpt lat="27.5972145" lon="104.7712404"><ele>1275.37</ele><time>2026-07-07T23:18:03.000Z</time></trkpt>
        <trkpt lat="27.5972955" lon="104.7712733"><ele>1274.77</ele><time>2026-07-07T23:18:13.000Z</time></trkpt>
        <trkpt lat="27.5973704" lon="104.7713367"><ele>1275</ele><time>2026-07-07T23:18:23.000Z</time></trkpt>
        <trkpt lat="27.5974725" lon="104.7713587"><ele>1275.87</ele><time>2026-07-07T23:18:41.000Z</time></trkpt>
        <trkpt lat="27.597571" lon="104.7713677"><ele>1278.08</ele><time>2026-07-07T23:18:51.000Z</time></trkpt>
        <trkpt lat="27.5976747" lon="104.7713721"><ele>1279.87</ele><time>2026-07-07T23:19:03.000Z</time></trkpt>
        <trkpt lat="27.5977691" lon="104.7713455"><ele>1281.48</ele><time>2026-07-07T23:19:11.000Z</time></trkpt>
        <trkpt lat="27.5978582" lon="104.7713153"><ele>1282.99</ele><time>2026-07-07T23:19:21.000Z</time></trkpt>
        <trkpt lat="27.5979482" lon="104.7713347"><ele>1284.97</ele><time>2026-07-07T23:19:33.000Z</time></trkpt>
        <trkpt lat="27.5980455" lon="104.7713334"><ele>1286.85</ele><time>2026-07-07T23:19:51.000Z</time></trkpt>
        <trkpt lat="27.5981388" lon="104.7712983"><ele>1288.89</ele><time>2026-07-07T23:20:07.000Z</time></trkpt>
        <trkpt lat="27.5982265" lon="104.7712477"><ele>1291.18</ele><time>2026-07-07T23:20:23.000Z</time></trkpt>
        <trkpt lat="27.5983082" lon="104.7711815"><ele>1293.83</ele><time>2026-07-07T23:20:39.000Z</time></trkpt>
        <trkpt lat="27.5982609" lon="104.7711986"><ele>1296.57</ele><time>2026-07-07T23:20:59.000Z</time></trkpt>
        <trkpt lat="27.5981903" lon="104.7712752"><ele>1299.26</ele><time>2026-07-07T23:21:11.000Z</time></trkpt>
        <trkpt lat="27.5981374" lon="104.7713856"><ele>1301.47</ele><time>2026-07-07T23:21:31.000Z</time></trkpt>
        <trkpt lat="27.5980804" lon="104.7714965"><ele>1303.18</ele><time>2026-07-07T23:21:45.000Z</time></trkpt>
        <trkpt lat="27.5979954" lon="104.771523"><ele>1304.99</ele><time>2026-07-07T23:21:59.000Z</time></trkpt>
        <trkpt lat="27.5979712" lon="104.7716027"><ele>1306.99</ele><time>2026-07-07T23:22:09.000Z</time></trkpt>
        <trkpt lat="27.5979176" lon="104.7716853"><ele>1308.67</ele><time>2026-07-07T23:22:31.000Z</time></trkpt>
        <trkpt lat="27.5978489" lon="104.7717532"><ele>1309.86</ele><time>2026-07-07T23:23:15.000Z</time></trkpt>
        <trkpt lat="27.5977775" lon="104.7718218"><ele>1314.76</ele><time>2026-07-07T23:23:37.000Z</time></trkpt>
        <trkpt lat="27.5976905" lon="104.7718711"><ele>1317.59</ele><time>2026-07-07T23:24:09.000Z</time></trkpt>
        <trkpt lat="27.5976164" lon="104.7719333"><ele>1319.19</ele><time>2026-07-07T23:24:45.000Z</time></trkpt>
        <trkpt lat="27.5975449" lon="104.7720105"><ele>1324.96</ele><time>2026-07-07T23:25:07.000Z</time></trkpt>
        <trkpt lat="27.5975608" lon="104.7721006"><ele>1328.78</ele><time>2026-07-07T23:25:31.000Z</time></trkpt>
        <trkpt lat="27.5974892" lon="104.7721266"><ele>1330.87</ele><time>2026-07-07T23:25:41.000Z</time></trkpt>
        <trkpt lat="27.5974027" lon="104.7721526"><ele>1331.61</ele><time>2026-07-07T23:25:51.000Z</time></trkpt>
        <trkpt lat="27.5973019" lon="104.7721443"><ele>1331.86</ele><time>2026-07-07T23:26:05.000Z</time></trkpt>
        <trkpt lat="27.5972236" lon="104.7720832"><ele>1332.35</ele><time>2026-07-07T23:26:17.000Z</time></trkpt>
        <trkpt lat="27.597118" lon="104.7720413"><ele>1334.61</ele><time>2026-07-07T23:26:29.000Z</time></trkpt>
        <trkpt lat="27.5970196" lon="104.7720689"><ele>1337.66</ele><time>2026-07-07T23:26:41.000Z</time></trkpt>
        <trkpt lat="27.5969249" lon="104.7720408"><ele>1338.66</ele><time>2026-07-07T23:26:59.000Z</time></trkpt>
        <trkpt lat="27.5968647" lon="104.7719611"><ele>1339.9</ele><time>2026-07-07T23:27:09.000Z</time></trkpt>
        <trkpt lat="27.5967917" lon="104.7718936"><ele>1341.73</ele><time>2026-07-07T23:27:21.000Z</time></trkpt>
        <trkpt lat="27.5966978" lon="104.771876"><ele>1343.36</ele><time>2026-07-07T23:27:31.000Z</time></trkpt>
        <trkpt lat="27.5966143" lon="104.7718006"><ele>1346.76</ele><time>2026-07-07T23:27:41.000Z</time></trkpt>
        <trkpt lat="27.5965481" lon="104.7717094"><ele>1351.75</ele><time>2026-07-07T23:27:51.000Z</time></trkpt>
        <trkpt lat="27.5964693" lon="104.771721"><ele>1354.74</ele><time>2026-07-07T23:28:11.000Z</time></trkpt>
        <trkpt lat="27.5963869" lon="104.7716979"><ele>1354.9</ele><time>2026-07-07T23:28:27.000Z</time></trkpt>
        <trkpt lat="27.5962912" lon="104.7716722"><ele>1357.08</ele><time>2026-07-07T23:30:09.000Z</time></trkpt>
        <trkpt lat="27.5961975" lon="104.7716087"><ele>1366.32</ele><time>2026-07-07T23:30:31.000Z</time></trkpt>
        <trkpt lat="27.5961094" lon="104.7715666"><ele>1374.41</ele><time>2026-07-07T23:32:01.000Z</time></trkpt>
        <trkpt lat="27.5960303" lon="104.7714966"><ele>1380.95</ele><time>2026-07-07T23:32:09.000Z</time></trkpt>
        <trkpt lat="27.5959481" lon="104.7714417"><ele>1385.42</ele><time>2026-07-07T23:32:21.000Z</time></trkpt>
        <trkpt lat="27.5958546" lon="104.7714401"><ele>1387.9</ele><time>2026-07-07T23:32:31.000Z</time></trkpt>
        <trkpt lat="27.5957999" lon="104.7715157"><ele>1389.25</ele><time>2026-07-07T23:32:47.000Z</time></trkpt>
        <trkpt lat="27.5957668" lon="104.7716184"><ele>1390.26</ele><time>2026-07-07T23:32:55.000Z</time></trkpt>
        <trkpt lat="27.5957394" lon="104.7717322"><ele>1390.75</ele><time>2026-07-07T23:33:05.000Z</time></trkpt>
        <trkpt lat="27.5957196" lon="104.7718434"><ele>1390.55</ele><time>2026-07-07T23:33:15.000Z</time></trkpt>
        <trkpt lat="27.5957839" lon="104.7719249"><ele>1390.19</ele><time>2026-07-07T23:33:25.000Z</time></trkpt>
        <trkpt lat="27.5957426" lon="104.7719254"><ele>1389.95</ele><time>2026-07-07T23:34:25.000Z</time></trkpt>
        <trkpt lat="27.5957355" lon="104.7718362"><ele>1388.34</ele><time>2026-07-07T23:34:33.000Z</time></trkpt>
        <trkpt lat="27.5957527" lon="104.7717229"><ele>1387.26</ele><time>2026-07-07T23:34:41.000Z</time></trkpt>
        <trkpt lat="27.5957669" lon="104.7716076"><ele>1386.71</ele><time>2026-07-07T23:34:49.000Z</time></trkpt>
        <trkpt lat="27.5957887" lon="104.7714965"><ele>1386.71</ele><time>2026-07-07T23:34:57.000Z</time></trkpt>
        <trkpt lat="27.5958393" lon="104.7714069"><ele>1387.14</ele><time>2026-07-07T23:35:07.000Z</time></trkpt>
        <trkpt lat="27.5958081" lon="104.7714461"><ele>1387.94</ele><time>2026-07-07T23:36:01.000Z</time></trkpt>
        <trkpt lat="27.5957729" lon="104.7715483"><ele>1390.73</ele><time>2026-07-07T23:36:15.000Z</time></trkpt>
        <trkpt lat="27.5957516" lon="104.7716657"><ele>1391.45</ele><time>2026-07-07T23:36:31.000Z</time></trkpt>
        <trkpt lat="27.5957309" lon="104.7717859"><ele>1391.45</ele><time>2026-07-07T23:36:45.000Z</time></trkpt>
        <trkpt lat="27.5957549" lon="104.7718916"><ele>1391.37</ele><time>2026-07-07T23:36:55.000Z</time></trkpt>
        <trkpt lat="27.5958352" lon="104.7719667"><ele>1391.03</ele><time>2026-07-07T23:37:07.000Z</time></trkpt>
        <trkpt lat="27.5956667" lon="104.7720746"><ele>1392.66</ele><time>2026-07-07T23:38:39.000Z</time></trkpt>
        <trkpt lat="27.5954659" lon="104.7721798"><ele>1392.67</ele><time>2026-07-07T23:38:45.000Z</time></trkpt>
        <trkpt lat="27.5953466" lon="104.7722398"><ele>1392.76</ele><time>2026-07-07T23:38:49.000Z</time></trkpt>
        <trkpt lat="27.5952394" lon="104.7723111"><ele>1392.8</ele><time>2026-07-07T23:38:53.000Z</time></trkpt>
        <trkpt lat="27.595131" lon="104.7724038"><ele>1393.08</ele><time>2026-07-07T23:38:57.000Z</time></trkpt>
        <trkpt lat="27.5950104" lon="104.772497"><ele>1393.4</ele><time>2026-07-07T23:39:01.000Z</time></trkpt>
        <trkpt lat="27.594879" lon="104.7725833"><ele>1393.69</ele><time>2026-07-07T23:39:05.000Z</time></trkpt>
        <trkpt lat="27.5947309" lon="104.7726348"><ele>1394.12</ele><time>2026-07-07T23:39:09.000Z</time></trkpt>
        <trkpt lat="27.5945855" lon="104.7727054"><ele>1394.69</ele><time>2026-07-07T23:39:13.000Z</time></trkpt>
        <trkpt lat="27.5944793" lon="104.7727602"><ele>1395.33</ele><time>2026-07-07T23:39:17.000Z</time></trkpt>
        <trkpt lat="27.5944205" lon="104.7726893"><ele>1395.94</ele><time>2026-07-07T23:39:23.000Z</time></trkpt>
        <trkpt lat="27.5944335" lon="104.7725124"><ele>1396.69</ele><time>2026-07-07T23:39:27.000Z</time></trkpt>
        <trkpt lat="27.5944753" lon="104.7723078"><ele>1397.43</ele><time>2026-07-07T23:39:31.000Z</time></trkpt>
        <trkpt lat="27.5944997" lon="104.7721554"><ele>1398.23</ele><time>2026-07-07T23:39:33.000Z</time></trkpt>
        <trkpt lat="27.5945063" lon="104.7720231"><ele>1398.88</ele><time>2026-07-07T23:39:35.000Z</time></trkpt>
        <trkpt lat="27.5944954" lon="104.7719036"><ele>1399.41</ele><time>2026-07-07T23:39:37.000Z</time></trkpt>
        <trkpt lat="27.5944691" lon="104.7717918"><ele>1399.84</ele><time>2026-07-07T23:39:39.000Z</time></trkpt>
        <trkpt lat="27.5944306" lon="104.7716949"><ele>1400.24</ele><time>2026-07-07T23:39:41.000Z</time></trkpt>
        <trkpt lat="27.5943782" lon="104.7716083"><ele>1400.56</ele><time>2026-07-07T23:39:43.000Z</time></trkpt>
        <trkpt lat="27.5942683" lon="104.7714903"><ele>1400.83</ele><time>2026-07-07T23:39:47.000Z</time></trkpt>
        <trkpt lat="27.5941812" lon="104.7714094"><ele>1401.16</ele><time>2026-07-07T23:39:49.000Z</time></trkpt>
        <trkpt lat="27.5941029" lon="104.7713456"><ele>1401.48</ele><time>2026-07-07T23:39:51.000Z</time></trkpt>
        <trkpt lat="27.5940185" lon="104.7712885"><ele>1401.81</ele><time>2026-07-07T23:39:53.000Z</time></trkpt>
        <trkpt lat="27.5939394" lon="104.7712317"><ele>1402.15</ele><time>2026-07-07T23:39:55.000Z</time></trkpt>
        <trkpt lat="27.5938069" lon="104.77114"><ele>1402.49</ele><time>2026-07-07T23:39:59.000Z</time></trkpt>
        <trkpt lat="27.5937016" lon="104.7710812"><ele>1403.05</ele><time>2026-07-07T23:40:01.000Z</time></trkpt>
        <trkpt lat="27.5936037" lon="104.7710365"><ele>1403.51</ele><time>2026-07-07T23:40:03.000Z</time></trkpt>
        <trkpt lat="27.5935052" lon="104.7709972"><ele>1403.92</ele><time>2026-07-07T23:40:05.000Z</time></trkpt>
        <trkpt lat="27.5934101" lon="104.7709434"><ele>1404.29</ele><time>2026-07-07T23:40:07.000Z</time></trkpt>
        <trkpt lat="27.593273" lon="104.7708785"><ele>1404.56</ele><time>2026-07-07T23:40:11.000Z</time></trkpt>
        <trkpt lat="27.5931375" lon="104.7708351"><ele>1404.77</ele><time>2026-07-07T23:40:15.000Z</time></trkpt>
        <trkpt lat="27.5929968" lon="104.770799"><ele>1405.07</ele><time>2026-07-07T23:40:19.000Z</time></trkpt>
        <trkpt lat="27.5928428" lon="104.7707183"><ele>1405.53</ele><time>2026-07-07T23:40:23.000Z</time></trkpt>
        <trkpt lat="27.5927467" lon="104.7706477"><ele>1406.26</ele><time>2026-07-07T23:40:25.000Z</time></trkpt>
        <trkpt lat="27.592643" lon="104.7705209"><ele>1406.9</ele><time>2026-07-07T23:40:29.000Z</time></trkpt>
        <trkpt lat="27.5925517" lon="104.7703634"><ele>1407.64</ele><time>2026-07-07T23:40:33.000Z</time></trkpt>
        <trkpt lat="27.5924519" lon="104.7702014"><ele>1408.49</ele><time>2026-07-07T23:40:37.000Z</time></trkpt>
        <trkpt lat="27.5923684" lon="104.770112"><ele>1409.28</ele><time>2026-07-07T23:40:39.000Z</time></trkpt>
        <trkpt lat="27.5922334" lon="104.7700523"><ele>1409.85</ele><time>2026-07-07T23:40:43.000Z</time></trkpt>
        <trkpt lat="27.5920945" lon="104.7700427"><ele>1410.43</ele><time>2026-07-07T23:40:47.000Z</time></trkpt>
        <trkpt lat="27.5919593" lon="104.7700629"><ele>1411.39</ele><time>2026-07-07T23:40:51.000Z</time></trkpt>
        <trkpt lat="27.5918192" lon="104.7701168"><ele>1412.35</ele><time>2026-07-07T23:40:55.000Z</time></trkpt>
        <trkpt lat="27.5916864" lon="104.7702176"><ele>1413.11</ele><time>2026-07-07T23:40:59.000Z</time></trkpt>
        <trkpt lat="27.5915496" lon="104.7703299"><ele>1413.88</ele><time>2026-07-07T23:41:03.000Z</time></trkpt>
        <trkpt lat="27.5913955" lon="104.7704309"><ele>1414.73</ele><time>2026-07-07T23:41:07.000Z</time></trkpt>
        <trkpt lat="27.5912266" lon="104.7704919"><ele>1415.53</ele><time>2026-07-07T23:41:11.000Z</time></trkpt>
        <trkpt lat="27.5910595" lon="104.7704992"><ele>1416.25</ele><time>2026-07-07T23:41:15.000Z</time></trkpt>
        <trkpt lat="27.5908942" lon="104.7704583"><ele>1417.24</ele><time>2026-07-07T23:41:19.000Z</time></trkpt>
        <trkpt lat="27.5907383" lon="104.7703795"><ele>1418.29</ele><time>2026-07-07T23:41:23.000Z</time></trkpt>
        <trkpt lat="27.590594" lon="104.7702899"><ele>1419.11</ele><time>2026-07-07T23:41:27.000Z</time></trkpt>
        <trkpt lat="27.5904377" lon="104.7702263"><ele>1419.96</ele><time>2026-07-07T23:41:31.000Z</time></trkpt>
        <trkpt lat="27.5902893" lon="104.7701405"><ele>1420.91</ele><time>2026-07-07T23:41:35.000Z</time></trkpt>
        <trkpt lat="27.5901983" lon="104.770062"><ele>1421.75</ele><time>2026-07-07T23:41:37.000Z</time></trkpt>
        <trkpt lat="27.5901401" lon="104.7699672"><ele>1422.43</ele><time>2026-07-07T23:41:39.000Z</time></trkpt>
        <trkpt lat="27.590101" lon="104.7698458"><ele>1423.08</ele><time>2026-07-07T23:41:41.000Z</time></trkpt>
        <trkpt lat="27.5900661" lon="104.7697176"><ele>1423.6</ele><time>2026-07-07T23:41:43.000Z</time></trkpt>
        <trkpt lat="27.5900329" lon="104.7695815"><ele>1423.97</ele><time>2026-07-07T23:41:45.000Z</time></trkpt>
        <trkpt lat="27.5899913" lon="104.7694545"><ele>1424.35</ele><time>2026-07-07T23:41:47.000Z</time></trkpt>
        <trkpt lat="27.5899393" lon="104.7693452"><ele>1424.76</ele><time>2026-07-07T23:41:49.000Z</time></trkpt>
        <trkpt lat="27.58988" lon="104.7692534"><ele>1425.12</ele><time>2026-07-07T23:41:51.000Z</time></trkpt>
        <trkpt lat="27.5898067" lon="104.7691797"><ele>1425.41</ele><time>2026-07-07T23:41:53.000Z</time></trkpt>
        <trkpt lat="27.5897301" lon="104.7691091"><ele>1425.7</ele><time>2026-07-07T23:41:55.000Z</time></trkpt>
        <trkpt lat="27.5896508" lon="104.7690195"><ele>1425.99</ele><time>2026-07-07T23:41:57.000Z</time></trkpt>
        <trkpt lat="27.5895669" lon="104.7689525"><ele>1426.2</ele><time>2026-07-07T23:41:59.000Z</time></trkpt>
        <trkpt lat="27.5894343" lon="104.7688832"><ele>1426.41</ele><time>2026-07-07T23:42:03.000Z</time></trkpt>
        <trkpt lat="27.5893248" lon="104.7688316"><ele>1426.85</ele><time>2026-07-07T23:42:09.000Z</time></trkpt>
        <trkpt lat="27.5893489" lon="104.7687724"><ele>1427.52</ele><time>2026-07-07T23:42:53.000Z</time></trkpt>
        <trkpt lat="27.5893043" lon="104.768809"><ele>1426.63</ele><time>2026-07-07T23:43:13.000Z</time></trkpt>
        <trkpt lat="27.5892373" lon="104.7687531"><ele>1417.36</ele><time>2026-07-07T23:43:25.000Z</time></trkpt>
        <trkpt lat="27.5891878" lon="104.768629"><ele>1411.72</ele><time>2026-07-07T23:43:31.000Z</time></trkpt>
        <trkpt lat="27.5891928" lon="104.7686849"><ele>1407.85</ele><time>2026-07-07T23:43:41.000Z</time></trkpt>
        <trkpt lat="27.5892571" lon="104.7687835"><ele>1403.51</ele><time>2026-07-07T23:43:45.000Z</time></trkpt>
        <trkpt lat="27.5893496" lon="104.7687781"><ele>1401</ele><time>2026-07-07T23:43:51.000Z</time></trkpt>
        <trkpt lat="27.5894384" lon="104.7687009"><ele>1399.87</ele><time>2026-07-07T23:43:59.000Z</time></trkpt>
        <trkpt lat="27.5895383" lon="104.7686393"><ele>1399.76</ele><time>2026-07-07T23:44:09.000Z</time></trkpt>
        <trkpt lat="27.5895615" lon="104.7686249"><ele>1400.76</ele><time>2026-07-07T23:44:21.000Z</time></trkpt>
        <trkpt lat="27.5896467" lon="104.7686584"><ele>1409.67</ele><time>2026-07-07T23:44:25.000Z</time></trkpt>
        <trkpt lat="27.5896593" lon="104.7687516"><ele>1406.68</ele><time>2026-07-07T23:44:29.000Z</time></trkpt>
        <trkpt lat="27.5895919" lon="104.7688657"><ele>1404.94</ele><time>2026-07-07T23:44:35.000Z</time></trkpt>
        <trkpt lat="27.5895471" lon="104.7688101"><ele>1404.08</ele><time>2026-07-07T23:44:41.000Z</time></trkpt>
        <trkpt lat="27.5895551" lon="104.7686905"><ele>1406.7</ele><time>2026-07-07T23:44:47.000Z</time></trkpt>
        <trkpt lat="27.5896056" lon="104.7685808"><ele>1409.98</ele><time>2026-07-07T23:44:51.000Z</time></trkpt>
        <trkpt lat="27.5896151" lon="104.7684703"><ele>1412.29</ele><time>2026-07-07T23:44:59.000Z</time></trkpt>
        <trkpt lat="27.589618" lon="104.768456"><ele>1414.29</ele><time>2026-07-07T23:45:35.000Z</time></trkpt>
        <trkpt lat="27.5895804" lon="104.7685421"><ele>1416.59</ele><time>2026-07-07T23:46:05.000Z</time></trkpt>
        <trkpt lat="27.5895281" lon="104.7686636"><ele>1416.02</ele><time>2026-07-07T23:46:13.000Z</time></trkpt>
        <trkpt lat="27.5894906" lon="104.7687937"><ele>1413.08</ele><time>2026-07-07T23:46:19.000Z</time></trkpt>
        <trkpt lat="27.5894319" lon="104.7688911"><ele>1411.64</ele><time>2026-07-07T23:46:27.000Z</time></trkpt>
        <trkpt lat="27.5893491" lon="104.7688951"><ele>1412.21</ele><time>2026-07-07T23:46:47.000Z</time></trkpt>
        <trkpt lat="27.5894356" lon="104.7688643"><ele>1414.12</ele><time>2026-07-07T23:48:43.000Z</time></trkpt>
        <trkpt lat="27.5895078" lon="104.7687849"><ele>1416.98</ele><time>2026-07-07T23:48:49.000Z</time></trkpt>
        <trkpt lat="27.5895078" lon="104.7687849"><ele>1416.98</ele><time>2026-07-07T23:51:01.000Z</time></trkpt>
      </trkseg>
      <trkseg>
        <trkpt lat="27.584308" lon="104.7689165"><ele>1418.58</ele><time>2026-07-08T03:24:08.000Z</time></trkpt>
        <trkpt lat="27.584308" lon="104.7689165"><ele>1418.58</ele><time>2026-07-08T03:24:12.000Z</time></trkpt>
        <trkpt lat="27.5843948" lon="104.7689507"><ele>1441.94</ele><time>2026-07-08T03:24:26.000Z</time></trkpt>
        <trkpt lat="27.584489" lon="104.7689445"><ele>1453.92</ele><time>2026-07-08T03:24:38.000Z</time></trkpt>
        <trkpt lat="27.5845468" lon="104.7688614"><ele>1460.42</ele><time>2026-07-08T03:24:56.000Z</time></trkpt>
        <trkpt lat="27.5845605" lon="104.7687487"><ele>1464.79</ele><time>2026-07-08T03:25:18.000Z</time></trkpt>
        <trkpt lat="27.5846271" lon="104.7687225"><ele>1466.46</ele><time>2026-07-08T03:25:56.000Z</time></trkpt>
        <trkpt lat="27.5846946" lon="104.7687771"><ele>1467.41</ele><time>2026-07-08T03:26:02.000Z</time></trkpt>
        <trkpt lat="27.5847988" lon="104.7687974"><ele>1467.95</ele><time>2026-07-08T03:26:38.000Z</time></trkpt>
        <trkpt lat="27.5849027" lon="104.7688071"><ele>1467.98</ele><time>2026-07-08T03:26:46.000Z</time></trkpt>
        <trkpt lat="27.584999" lon="104.768829"><ele>1468.19</ele><time>2026-07-08T03:26:56.000Z</time></trkpt>
        <trkpt lat="27.585098" lon="104.768856"><ele>1468.61</ele><time>2026-07-08T03:27:06.000Z</time></trkpt>
        <trkpt lat="27.5851894" lon="104.768908"><ele>1468.68</ele><time>2026-07-08T03:28:12.000Z</time></trkpt>
        <trkpt lat="27.5852802" lon="104.7688888"><ele>1469.26</ele><time>2026-07-08T03:28:20.000Z</time></trkpt>
        <trkpt lat="27.5853694" lon="104.7688572"><ele>1470.62</ele><time>2026-07-08T03:28:30.000Z</time></trkpt>
        <trkpt lat="27.5854664" lon="104.7688193"><ele>1472.29</ele><time>2026-07-08T03:28:40.000Z</time></trkpt>
        <trkpt lat="27.5855623" lon="104.7687847"><ele>1473.69</ele><time>2026-07-08T03:28:50.000Z</time></trkpt>
        <trkpt lat="27.5856598" lon="104.7687877"><ele>1474.53</ele><time>2026-07-08T03:29:02.000Z</time></trkpt>
        <trkpt lat="27.5856904" lon="104.7688972"><ele>1476.09</ele><time>2026-07-08T03:30:02.000Z</time></trkpt>
        <trkpt lat="27.5857058" lon="104.7690028"><ele>1480.06</ele><time>2026-07-08T03:30:10.000Z</time></trkpt>
        <trkpt lat="27.585756" lon="104.7691027"><ele>1482.92</ele><time>2026-07-08T03:30:20.000Z</time></trkpt>
        <trkpt lat="27.5858355" lon="104.7691473"><ele>1485.38</ele><time>2026-07-08T03:30:30.000Z</time></trkpt>
        <trkpt lat="27.5857936" lon="104.7691781"><ele>1487.07</ele><time>2026-07-08T03:31:18.000Z</time></trkpt>
        <trkpt lat="27.5856927" lon="104.7691739"><ele>1488.96</ele><time>2026-07-08T03:31:28.000Z</time></trkpt>
        <trkpt lat="27.5855849" lon="104.7691296"><ele>1490.23</ele><time>2026-07-08T03:31:38.000Z</time></trkpt>
        <trkpt lat="27.5855018" lon="104.7691881"><ele>1491.26</ele><time>2026-07-08T03:32:50.000Z</time></trkpt>
        <trkpt lat="27.5854555" lon="104.7690867"><ele>1491.67</ele><time>2026-07-08T03:33:00.000Z</time></trkpt>
        <trkpt lat="27.585399" lon="104.7689794"><ele>1490.57</ele><time>2026-07-08T03:34:04.000Z</time></trkpt>
        <trkpt lat="27.5852959" lon="104.769018"><ele>1488.95</ele><time>2026-07-08T03:34:14.000Z</time></trkpt>
        <trkpt lat="27.5852047" lon="104.7690108"><ele>1488.45</ele><time>2026-07-08T03:34:22.000Z</time></trkpt>
        <trkpt lat="27.5851039" lon="104.7690026"><ele>1488.04</ele><time>2026-07-08T03:34:34.000Z</time></trkpt>
        <trkpt lat="27.5850031" lon="104.7689795"><ele>1487.6</ele><time>2026-07-08T03:34:48.000Z</time></trkpt>
        <trkpt lat="27.5849034" lon="104.7689465"><ele>1486.04</ele><time>2026-07-08T03:34:58.000Z</time></trkpt>
        <trkpt lat="27.5848074" lon="104.7689265"><ele>1484.82</ele><time>2026-07-08T03:35:08.000Z</time></trkpt>
        <trkpt lat="27.5847174" lon="104.7689482"><ele>1484.05</ele><time>2026-07-08T03:35:18.000Z</time></trkpt>
        <trkpt lat="27.584635" lon="104.7689988"><ele>1483.69</ele><time>2026-07-08T03:35:26.000Z</time></trkpt>
        <trkpt lat="27.5845567" lon="104.7690703"><ele>1483.4</ele><time>2026-07-08T03:35:36.000Z</time></trkpt>
        <trkpt lat="27.5844709" lon="104.7690642"><ele>1482.83</ele><time>2026-07-08T03:35:50.000Z</time></trkpt>
        <trkpt lat="27.5843855" lon="104.7690258"><ele>1482.44</ele><time>2026-07-08T03:36:00.000Z</time></trkpt>
        <trkpt lat="27.5842971" lon="104.7689724"><ele>1482.55</ele><time>2026-07-08T03:36:12.000Z</time></trkpt>
        <trkpt lat="27.5842043" lon="104.7689376"><ele>1482.43</ele><time>2026-07-08T03:36:24.000Z</time></trkpt>
        <trkpt lat="27.5841059" lon="104.7689358"><ele>1482.25</ele><time>2026-07-08T03:36:42.000Z</time></trkpt>
        <trkpt lat="27.584173" lon="104.7689165"><ele>1481.74</ele><time>2026-07-08T03:37:04.000Z</time></trkpt>
        <trkpt lat="27.5841285" lon="104.7689308"><ele>1480.29</ele><time>2026-07-08T03:38:16.000Z</time></trkpt>
        <trkpt lat="27.584018" lon="104.7689069"><ele>1479.98</ele><time>2026-07-08T03:38:22.000Z</time></trkpt>
        <trkpt lat="27.5839656" lon="104.7688159"><ele>1478.59</ele><time>2026-07-08T03:38:28.000Z</time></trkpt>
        <trkpt lat="27.5842417" lon="104.7690832"><ele>1477.73</ele><time>2026-07-08T03:39:53.000Z</time></trkpt>
        <trkpt lat="27.5842794" lon="104.7689585"><ele>1482.13</ele><time>2026-07-08T03:41:33.000Z</time></trkpt>
        <trkpt lat="27.5842113" lon="104.7689588"><ele>1485.33</ele><time>2026-07-08T03:41:37.000Z</time></trkpt>
        <trkpt lat="27.5842784" lon="104.7689945"><ele>1487.08</ele><time>2026-07-08T03:41:47.000Z</time></trkpt>
        <trkpt lat="27.5842784" lon="104.7689945"><ele>1487.08</ele><time>2026-07-08T03:47:14.000Z</time></trkpt>
      </trkseg>
  </trk>
</gpx>